Jim Hamilton L.B. Owens Airport Columbia US
ICAO: KCUB
IATA: CUB
Category: Medium
Scheduled Services: No

Elevation: 193 ft
TransAlt. 18000 ft.

Airport Communications:
APP/DEP:133.4
ASOS:119.675
CLNC DEL:124.4
MIL OPS:122.8
ANDERSON RDO:114.7
CTAF/UNICOM:122.8

KCUB Zoom In..

If you have problems with the map follow the link
https://www.worldairports.se/pages/airport.php?
ICAO=KCUB

Runways:

(A) RW 13 length 5011 ft width 75 ft
LOC 110.90 / hdg 131

(B) RW 31 length 5011 ft width 75 ft
LOC 110.90 / hdg 311

Location; KCUB
Day. 19 / Time. 14.53 Zulu
* Altimeter: 30.00
* Temperature: 13° c. 55.4°f.
* Wind from: 260° Speed 07 kn.
Dewpoint: 10° c.
Visibility: 10 Statute Miles.
Clouds: Broken 9000 ft.

KCUB 191453Z AUTO 26007KT 10SM BKN090 13/10 A3000 RMK AO2 SLP156 60000 T01330100 53002


Wind From 260°
Speed 07 kn.

 
 
jpsmedia worldairports.se 2020   terms of use